Unalaska, AK (99685)

6:41 PM AKDT on August 30, 2015 (GMT -0800)
Dutch Harbor | | Change Station
CLOSE
Current Station
Airport
Location: Dutch Harbor,
Elevation: 13 ft
Nearby Weather Stations

Elev 13 ft 53.90 °N, 166.54 °W | Updated 45 minutes ago

Overcast
Overcast
56 °F
Feels Like 56 °F
N
10
Wind Variable Wind from SSE

Today
High -- | Low -- °F
--% Chance of Precip.
Yesterday
High -- | Low -- °F
Precip. -- in
8:11 AM 10:01 PM
Full, 97% visible
Pressure 29.99 in
Visibility 10.0 miles
Clouds Mostly Cloudy 1800 ft
Overcast 3400 ft
Dew Point 49 °F
Humidity 77%
Rainfall 0.32 in
Snow Depth Not available.
UV 1 out of 12
Pollen Not available.
Air Quality Not available.
Flu Activity Not available.
METAR PADU 310156Z 16009KT 10SM BKN018 OVC034 13/09 A2997 RMK AO2 SLP155 T01330094
Pressure 29.99 in
Visibility 10.0 miles
Clouds Mostly Cloudy 1800 ft
Overcast 3400 ft
Dew Point 49 °F
Humidity 77%
Rainfall 0.32 in
Snow Depth Not available.
UV 1 out of 12
Pollen Not available.
Air Quality Not available.
Flu Activity Not available.
METAR PADU 310156Z 16009KT 10SM BKN018 OVC034 13/09 A2997 RMK AO2 SLP155 T01330094

10-Day Weather Forecast

×

Almanac

Astronomy

Aug. 30, 2015 Rise Set
Actual Time
Civil Twilight
Nautical Twilight
Astronomical Twilight
Moon
Length of Visible Light
Length of Day
Tomorrow will be .
, % of the Moon is Illuminated

Today's Extremes

State Highs State Lows

Community

WunderPhotos

Upload Photos

1,851,165 photos uploaded!

WunderBlogs® & News

Nearby

Air Quality

  Air Quality AQ Index Pollutant
Not available.

Snow Depth

Station Depth Elevation

Earthquake Activity

City Distance Mag. Time & Date
Minimum magnitude displayed is 2.5.

Coastal Water Temperatures

Place Temperature

Stations

Nearby Weather Stations

Station Location Temp. Windchill Dew Point Humidity Wind Precip. Elev Updated Type